Terminal Aerodrome Forecast
Issued by NWS

Home | Current Version | Previous Version | Text Only | Print | Product List | Glossary On
Versions: 1 2 3 4 5 6 7 8 9 10 11 12 13 14 15 16 17 18 19 20 21 22 23 24 25 26 27 28 29 30 31 32 33
000
FTUS45 KPSR 212340 AAA
TAFIWA
TAF AMD
KIWA 212340Z 2200/2224 29007KT P6SM FEW110
     FM220600 12006KT P6SM FEW120 SCT250
     FM221800 26008KT P6SM SCT120
      AMD LTD TO CLD VIS AND WIND 2203/2213=

USA.gov is the U.S. government's official web portal to all federal, state and local government web resources and services.